Time;durP1;ratioP1;P1;durP2;ratioP2;P2;SDS_P1;SDS_P2;PMS_P1;PMS_P2;Temp;Humidity;BMP_temperature;BMP_pressure;BME280_temperature;BME280_humidity;BME280_pressure;Samples;Min_cycle;Max_cycle;Signal;HPM_P1;HPM_P2
2022/04/12 00:02:20;;;;;;;;;;;6.50;99.90;;;;;;5156475;27;19931;-71
2022/04/12 00:04:45;;;;;;;;;;;6.40;99.90;;;;;;5137392;27;20397;-70
2022/04/12 00:07:11;;;;;;;;;;;6.50;99.90;;;;;;5138334;27;19924;-71
2022/04/12 00:09:36;;;;;;;;;;;6.50;99.90;;;;;;5156392;27;19930;-71
2022/04/12 00:12:02;;;;;;;;;;;6.50;99.90;;;;;;5138184;27;19931;-70
2022/04/12 00:14:27;;;;;;;;;;;6.50;99.90;;;;;;5137444;27;19927;-69
2022/04/12 00:19:02;;;;;;;;;;;6.80;99.90;;;;;;5156199;27;19923;-69
2022/04/12 00:19:38;;;;;;;;;;;7.10;99.90;;;;;;5137541;27;20015;-70
2022/04/12 00:22:04;;;;;;;;;;;6.40;99.90;;;;;;5156436;27;19954;-69
2022/04/12 00:24:29;;;;;;;;;;;6.40;99.90;;;;;;5156150;27;19927;-70
2022/04/12 00:26:55;;;;;;;;;;;6.40;99.90;;;;;;5155843;27;19930;-71
2022/04/12 00:29:21;;;;;;;;;;;6.50;99.90;;;;;;5156010;27;19923;-71
2022/04/12 00:31:46;;;;;;;;;;;6.50;99.90;;;;;;5137799;27;19923;-70
2022/04/12 00:34:13;;;;;;;;;;;6.50;99.90;;;;;;5155775;27;19946;-72
2022/04/12 00:36:39;;;;;;;;;;;6.50;99.90;;;;;;5156034;27;20395;-72
2022/04/12 00:39:04;;;;;;;;;;;6.50;99.90;;;;;;5156020;27;20022;-69
2022/04/12 00:41:35;;;;;;;;;;;6.50;99.90;;;;;;5155848;27;19923;-71
2022/04/12 00:44:01;;;;;;;;;;;6.50;99.90;;;;;;5137255;27;19971;-71
2022/04/12 00:46:26;;;;;;;;;;;6.50;99.90;;;;;;5137402;27;19923;-69
2022/04/12 00:48:52;;;;;;;;;;;6.50;99.90;;;;;;5137210;27;19923;-70
2022/04/12 00:51:17;;;;;;;;;;;6.50;99.90;;;;;;5137422;27;19977;-69
2022/04/12 00:53:43;;;;;;;;;;;6.90;99.90;;;;;;5155677;27;19926;-72
2022/04/12 00:56:09;;;;;;;;;;;6.50;99.90;;;;;;5155647;27;19930;-69
2022/04/12 00:58:35;;;;;;;;;;;6.50;99.90;;;;;;5137250;27;19923;-70
2022/04/12 01:01:00;;;;;;;;;;;7.10;99.90;;;;;;5155518;27;20027;-71
2022/04/12 01:03:26;;;;;;;;;;;7.10;99.90;;;;;;5155415;27;20034;-69
2022/04/12 01:05:53;;;;;;;;;;;6.50;99.90;;;;;;5155592;27;20009;-70
2022/04/12 01:08:18;;;;;;;;;;;7.40;99.90;;;;;;5155436;27;19923;-70
2022/04/12 01:10:45;;;;;;;;;;;6.50;99.90;;;;;;5137274;27;19930;-71
2022/04/12 01:13:11;;;;;;;;;;;6.70;99.90;;;;;;5155347;27;19923;-70
2022/04/12 01:15:37;;;;;;;;;;;6.50;99.90;;;;;;5140162;27;20386;-70
2022/04/12 01:18:03;;;;;;;;;;;6.60;99.90;;;;;;5162267;27;19923;-71
2022/04/12 01:20:31;;;;;;;;;;;6.50;99.90;;;;;;5143889;27;20409;-70
2022/04/12 01:23:13;;;;;;;;;;;6.50;99.90;;;;;;5143783;27;19923;-70
2022/04/12 01:25:39;;;;;;;;;;;6.60;99.90;;;;;;5162296;27;19923;-70
2022/04/12 01:28:06;;;;;;;;;;;6.50;99.90;;;;;;5161960;27;19946;-70
2022/04/12 01:30:31;;;;;;;;;;;6.60;99.90;;;;;;5162044;27;20010;-70
2022/04/12 01:32:57;;;;;;;;;;;6.60;99.90;;;;;;5143836;27;20390;-70
2022/04/12 01:35:22;;;;;;;;;;;6.50;99.90;;;;;;5162267;27;20446;-71
2022/04/12 01:37:48;;;;;;;;;;;6.80;99.90;;;;;;5162286;27;20431;-70
2022/04/12 01:40:14;;;;;;;;;;;6.60;99.90;;;;;;5161975;27;20329;-71
2022/04/12 01:42:39;;;;;;;;;;;5.50;99.90;;;;;;5162045;27;20385;-70
2022/04/12 01:45:06;;;;;;;;;;;6.50;99.90;;;;;;5161969;27;20394;-70
2022/04/12 01:47:31;;;;;;;;;;;6.50;99.90;;;;;;5161971;27;19923;-70
2022/04/12 01:49:57;;;;;;;;;;;7.20;99.90;;;;;;5143457;27;20356;-70
2022/04/12 01:52:22;;;;;;;;;;;6.60;99.90;;;;;;5162030;27;19989;-70
2022/04/12 01:54:48;;;;;;;;;;;6.50;99.90;;;;;;5143818;27;20367;-70
2022/04/12 01:57:14;;;;;;;;;;;6.50;99.90;;;;;;5161865;27;19959;-71
2022/04/12 01:59:40;;;;;;;;;;;6.50;99.90;;;;;;5143254;27;19934;-71
2022/04/12 02:02:06;;;;;;;;;;;6.50;99.90;;;;;;5161686;27;20420;-70
2022/04/12 02:04:31;;;;;;;;;;;6.40;99.90;;;;;;5161817;27;19923;-70
2022/04/12 02:06:57;;;;;;;;;;;6.40;99.90;;;;;;5161976;27;20369;-72
2022/04/12 02:09:22;;;;;;;;;;;6.50;99.90;;;;;;5161578;27;19931;-70
2022/04/12 02:11:48;;;;;;;;;;;6.50;99.90;;;;;;5125985;27;19976;-70
2022/04/12 02:14:13;;;;;;;;;;;7.50;99.90;;;;;;5161733;27;19930;-70
2022/04/12 02:16:39;;;;;;;;;;;6.50;99.90;;;;;;5161730;27;19934;-70
2022/04/12 02:19:04;;;;;;;;;;;6.60;99.90;;;;;;5143398;27;19923;-71
2022/04/12 02:21:30;;;;;;;;;;;7.10;99.90;;;;;;5143361;27;20386;-69
2022/04/12 02:23:56;;;;;;;;;;;6.40;99.90;;;;;;5143207;27;19923;-70
2022/04/12 02:26:21;;;;;;;;;;;6.50;99.90;;;;;;5160354;27;19952;-70
2022/04/12 02:28:48;;;;;;;;;;;6.40;99.90;;;;;;5156974;27;20485;-71
2022/04/12 02:31:15;;;;;;;;;;;6.50;99.90;;;;;;5158381;27;19968;-70
2022/04/12 02:33:41;;;;;;;;;;;6.40;99.90;;;;;;5158257;27;19930;-70
2022/04/12 02:36:06;;;;;;;;;;;6.40;99.90;;;;;;5139594;27;19923;-71
2022/04/12 02:38:32;;;;;;;;;;;7.40;99.90;;;;;;5158379;27;19967;-70
2022/04/12 02:40:58;;;;;;;;;;;7.10;99.90;;;;;;5158354;27;20289;-70
2022/04/12 02:43:23;;;;;;;;;;;6.40;99.90;;;;;;5158100;27;20274;-72
2022/04/12 02:45:49;;;;;;;;;;;7.40;99.90;;;;;;5122183;27;20495;-69
2022/04/12 02:48:14;;;;;;;;;;;6.70;99.90;;;;;;5157945;27;19923;-72
2022/04/12 02:50:40;;;;;;;;;;;6.40;99.90;;;;;;5157720;27;19923;-70
2022/04/12 02:53:06;;;;;;;;;;;6.40;99.90;;;;;;5158184;27;20263;-72
2022/04/12 02:55:31;;;;;;;;;;;7.70;99.90;;;;;;5157940;27;19946;-71
2022/04/12 02:57:57;;;;;;;;;;;6.30;99.90;;;;;;5139065;27;20019;-70
2022/04/12 03:00:22;;;;;;;;;;;6.80;99.90;;;;;;5157774;27;19923;-70
2022/04/12 03:02:48;;;;;;;;;;;7.00;99.90;;;;;;5157765;27;20146;-69
2022/04/12 03:05:13;;;;;;;;;;;6.30;99.90;;;;;;5157569;27;19923;-70
2022/04/12 03:07:39;;;;;;;;;;;6.30;99.90;;;;;;5157536;27;20389;-71
2022/04/12 03:10:05;;;;;;;;;;;6.30;99.90;;;;;;5157506;27;20289;-70
2022/04/12 03:12:30;;;;;;;;;;;6.30;99.90;;;;;;5157768;27;19930;-71
2022/04/12 03:14:56;;;;;;;;;;;7.80;99.90;;;;;;5157597;27;20397;-70
2022/04/12 03:17:22;;;;;;;;;;;6.30;99.90;;;;;;5138996;27;19973;-69
2022/04/12 03:19:47;;;;;;;;;;;6.90;99.90;;;;;;5121926;27;19923;-71
2022/04/12 03:22:13;;;;;;;;;;;6.30;99.90;;;;;;5139029;27;20341;-70
2022/04/12 03:24:38;;;;;;;;;;;6.30;99.90;;;;;;5157056;27;19930;-71
2022/04/12 03:27:04;;;;;;;;;;;6.30;99.90;;;;;;5139035;27;19923;-70
2022/04/12 03:29:30;;;;;;;;;;;6.30;99.90;;;;;;5157152;27;20025;-70
2022/04/12 03:31:55;;;;;;;;;;;7.20;99.90;;;;;;5138739;27;20397;-71
2022/04/12 03:34:21;;;;;;;;;;;4.90;99.90;;;;;;5156947;27;20027;-71
2022/04/12 03:36:47;;;;;;;;;;;6.20;99.90;;;;;;5138276;27;19923;-70
2022/04/12 03:39:17;;;;;;;;;;;6.90;99.90;;;;;;5138697;27;19966;-72
2022/04/12 03:41:45;;;;;;;;;;;6.80;99.90;;;;;;5137902;27;19923;-71
2022/04/12 03:44:10;;;;;;;;;;;7.50;99.90;;;;;;5138497;27;19931;-72
2022/04/12 03:46:36;;;;;;;;;;;6.20;99.90;;;;;;5138610;27;19979;-69
2022/04/12 03:49:01;;;;;;;;;;;6.20;99.90;;;;;;5156764;27;20022;-69
2022/04/12 03:51:27;;;;;;;;;;;7.20;99.90;;;;;;5156672;27;20015;-72
2022/04/12 03:53:52;;;;;;;;;;;6.80;99.90;;;;;;5138429;27;19974;-71
2022/04/12 03:56:19;;;;;;;;;;;6.40;99.90;;;;;;5156823;27;19930;-70
2022/04/12 03:58:44;;;;;;;;;;;6.10;99.90;;;;;;5156644;27;19923;-70
2022/04/12 04:01:10;;;;;;;;;;;6.30;99.90;;;;;;5156691;27;19933;-70
2022/04/12 04:03:35;;;;;;;;;;;6.10;99.90;;;;;;5156568;27;20441;-70
2022/04/12 04:06:02;;;;;;;;;;;6.10;99.90;;;;;;5156441;27;20386;-70
2022/04/12 04:08:27;;;;;;;;;;;6.10;99.90;;;;;;5137796;27;20420;-71
2022/04/12 04:10:53;;;;;;;;;;;6.10;99.90;;;;;;5156497;27;19981;-71
2022/04/12 04:13:18;;;;;;;;;;;4.70;99.90;;;;;;5137453;27;19923;-71
2022/04/12 04:15:45;;;;;;;;;;;7.00;99.90;;;;;;5156296;27;19978;-71
2022/04/12 04:18:11;;;;;;;;;;;6.10;99.90;;;;;;5156221;27;20389;-72
2022/04/12 04:20:37;;;;;;;;;;;6.10;99.90;;;;;;5156187;27;19967;-71
2022/04/12 04:23:03;;;;;;;;;;;6.10;99.90;;;;;;5137410;27;19945;-71
2022/04/12 04:25:29;;;;;;;;;;;6.10;99.90;;;;;;5156310;27;20362;-70
2022/04/12 04:27:54;;;;;;;;;;;6.80;99.90;;;;;;5156087;27;20412;-71
2022/04/12 04:30:20;;;;;;;;;;;6.10;99.90;;;;;;5155994;27;19931;-73
2022/04/12 04:32:46;;;;;;;;;;;6.10;99.90;;;;;;5155891;27;20373;-71
2022/04/12 04:35:12;;;;;;;;;;;6.00;99.90;;;;;;5137698;27;19923;-72
2022/04/12 04:37:44;;;;;;;;;;;6.30;99.90;;;;;;5155856;27;19924;-70
2022/04/12 04:40:11;;;;;;;;;;;6.00;99.90;;;;;;5156249;27;20393;-69
2022/04/12 04:42:37;;;;;;;;;;;6.00;99.90;;;;;;5155928;27;19923;-69
2022/04/12 04:45:03;;;;;;;;;;;7.50;99.90;;;;;;5155866;27;19984;-69
2022/04/12 04:47:29;;;;;;;;;;;6.00;99.90;;;;;;5155780;27;19923;-70
2022/04/12 04:49:54;;;;;;;;;;;6.00;99.90;;;;;;5154899;27;19946;-69
2022/04/12 04:52:23;;;;;;;;;;;6.00;99.90;;;;;;5155808;27;19923;-69
2022/04/12 04:54:48;;;;;;;;;;;6.70;99.90;;;;;;5155450;27;20306;-70
2022/04/12 04:57:14;;;;;;;;;;;6.20;99.90;;;;;;5137190;27;19924;-71
2022/04/12 04:59:39;;;;;;;;;;;6.40;99.90;;;;;;5155719;27;20270;-69
2022/04/12 05:02:05;;;;;;;;;;;6.10;99.90;;;;;;5155657;27;20001;-69
2022/04/12 05:04:31;;;;;;;;;;;4.40;99.90;;;;;;5155508;27;19927;-70
2022/04/12 05:06:56;;;;;;;;;;;6.00;99.90;;;;;;5155358;27;19923;-70
2022/04/12 05:09:22;;;;;;;;;;;5.90;99.90;;;;;;5136723;27;19962;-72
2022/04/12 05:11:47;;;;;;;;;;;6.80;99.90;;;;;;5155398;27;19923;-71
2022/04/12 05:14:13;;;;;;;;;;;5.90;99.90;;;;;;5155515;27;19927;-70
2022/04/12 05:16:38;;;;;;;;;;;5.90;99.90;;;;;;5155385;27;20350;-69
2022/04/12 05:19:04;;;;;;;;;;;5.90;99.90;;;;;;5155309;27;19975;-70
2022/04/12 05:21:30;;;;;;;;;;;5.90;99.90;;;;;;5155233;27;20017;-71
2022/04/12 05:23:55;;;;;;;;;;;5.90;99.90;;;;;;5136689;27;19974;-70
2022/04/12 05:26:21;;;;;;;;;;;5.90;99.90;;;;;;5155396;27;19974;-70
2022/04/12 05:28:46;;;;;;;;;;;6.60;99.90;;;;;;5155063;27;19923;-72
2022/04/12 05:31:12;;;;;;;;;;;6.40;99.90;;;;;;5155203;27;19973;-72
2022/04/12 05:33:38;;;;;;;;;;;6.10;99.90;;;;;;5136995;27;19923;-69
2022/04/12 05:36:03;;;;;;;;;;;4.90;99.90;;;;;;5137020;27;20302;-70
2022/04/12 05:38:29;;;;;;;;;;;5.90;99.90;;;;;;5155213;27;19923;-69
2022/04/12 05:40:55;;;;;;;;;;;6.20;99.90;;;;;;5155008;27;19929;-70
2022/04/12 05:43:20;;;;;;;;;;;5.90;99.90;;;;;;5155160;27;20413;-70
2022/04/12 05:45:46;;;;;;;;;;;6.10;99.90;;;;;;5155291;27;19930;-71
2022/04/12 05:48:11;;;;;;;;;;;6.50;99.90;;;;;;5136975;27;19923;-70
2022/04/12 05:50:37;;;;;;;;;;;5.90;99.90;;;;;;5154966;27;19986;-70
2022/04/12 05:53:03;;;;;;;;;;;5.90;99.90;;;;;;5136448;27;19923;-69
2022/04/12 05:55:28;;;;;;;;;;;6.00;99.90;;;;;;5154841;27;19923;-71
2022/04/12 05:57:56;;;;;;;;;;;6.40;99.90;;;;;;5154790;27;20009;-70
2022/04/12 06:00:25;;;;;;;;;;;6.60;99.90;;;;;;5155102;27;19923;-71
2022/04/12 06:02:51;;;;;;;;;;;6.10;99.90;;;;;;5140234;27;19923;-70
2022/04/12 06:05:18;;;;;;;;;;;6.00;99.90;;;;;;5140712;27;19967;-70
2022/04/12 06:07:44;;;;;;;;;;;6.20;99.90;;;;;;5158824;27;19962;-69
2022/04/12 06:10:10;;;;;;;;;;;6.30;99.90;;;;;;5140130;27;19935;-71
2022/04/12 06:12:36;;;;;;;;;;;6.30;99.90;;;;;;5140349;27;19927;-69
2022/04/12 06:15:03;;;;;;;;;;;6.20;99.90;;;;;;5158473;27;19930;-70
2022/04/12 06:17:29;;;;;;;;;;;6.40;99.90;;;;;;5158806;27;19946;-69
2022/04/12 06:19:58;;;;;;;;;;;6.40;99.90;;;;;;5158587;27;19923;-70
2022/04/12 06:22:24;;;;;;;;;;;6.50;99.90;;;;;;5158865;27;19976;-69
2022/04/12 06:24:49;;;;;;;;;;;7.70;99.90;;;;;;5139404;27;19927;-70
2022/04/12 06:27:15;;;;;;;;;;;6.80;99.90;;;;;;5158461;27;19931;-70
2022/04/12 06:29:41;;;;;;;;;;;6.90;99.90;;;;;;5157248;27;19923;-69
2022/04/12 06:32:06;;;;;;;;;;;6.90;99.90;;;;;;5158252;27;19946;-70
2022/04/12 06:34:32;;;;;;;;;;;7.00;99.90;;;;;;5158128;27;20334;-71
2022/04/12 06:36:57;;;;;;;;;;;7.90;99.90;;;;;;5158228;27;19930;-71
2022/04/12 06:39:24;;;;;;;;;;;7.10;99.90;;;;;;5158117;27;20355;-70
2022/04/12 06:41:49;;;;;;;;;;;7.70;99.90;;;;;;5157888;27;20017;-70
2022/04/12 06:44:15;;;;;;;;;;;7.20;99.90;;;;;;5158076;27;19973;-71
2022/04/12 06:46:40;;;;;;;;;;;7.30;99.90;;;;;;5158281;27;19930;-71
2022/04/12 06:49:06;;;;;;;;;;;7.40;99.90;;;;;;5157986;27;20331;-70
2022/04/12 06:51:31;;;;;;;;;;;7.40;99.90;;;;;;5139756;27;19930;-71
2022/04/12 06:53:57;;;;;;;;;;;7.40;99.90;;;;;;5157888;27;19923;-71
2022/04/12 06:56:22;;;;;;;;;;;7.70;99.90;;;;;;5139309;27;20390;-69
2022/04/12 06:58:48;;;;;;;;;;;7.60;99.90;;;;;;5139579;27;20251;-71
2022/04/12 07:01:13;;;;;;;;;;;8.80;99.90;;;;;;5157844;27;20290;-71
2022/04/12 07:03:39;;;;;;;;;;;7.70;99.90;;;;;;5157845;27;19934;-69
2022/04/12 07:06:04;;;;;;;;;;;7.70;99.90;;;;;;5157642;27;19923;-70
2022/04/12 07:08:30;;;;;;;;;;;7.90;99.90;;;;;;5139055;27;19970;-70
2022/04/12 07:10:55;;;;;;;;;;;7.80;99.90;;;;;;5157407;27;20365;-70
2022/04/12 07:13:21;;;;;;;;;;;8.00;99.90;;;;;;5138507;27;20297;-70
2022/04/12 07:15:47;;;;;;;;;;;8.60;99.90;;;;;;5157711;27;19923;-71
2022/04/12 07:18:13;;;;;;;;;;;7.90;99.90;;;;;;5139237;27;19923;-69
2022/04/12 07:20:38;;;;;;;;;;;8.00;99.90;;;;;;5157490;27;20290;-70
2022/04/12 07:23:04;;;;;;;;;;;8.70;99.90;;;;;;5157261;27;19923;-70
2022/04/12 07:25:29;;;;;;;;;;;8.10;99.90;;;;;;5138236;27;19927;-70
2022/04/12 07:27:55;;;;;;;;;;;8.20;99.90;;;;;;5175553;27;20011;-70
2022/04/12 07:30:21;;;;;;;;;;;8.20;99.90;;;;;;5178164;27;19922;-70
2022/04/12 07:32:46;;;;;;;;;;;8.20;99.90;;;;;;5178231;27;19973;-70
2022/04/12 07:35:12;;;;;;;;;;;8.20;99.90;;;;;;5178271;27;19923;-70
2022/04/12 07:37:41;;;;;;;;;;;8.30;99.90;;;;;;5177826;27;20296;-69
2022/04/12 07:40:07;;;;;;;;;;;8.50;99.90;;;;;;5177923;27;19926;-70
2022/04/12 07:42:32;;;;;;;;;;;8.30;99.90;;;;;;5177700;27;20545;-71
2022/04/12 07:44:58;;;;;;;;;;;8.30;99.90;;;;;;5178066;27;19922;-71
2022/04/12 07:47:24;;;;;;;;;;;8.40;99.90;;;;;;5159578;27;20006;-69
2022/04/12 07:49:49;;;;;;;;;;;8.40;99.90;;;;;;5177706;27;19970;-71
2022/04/12 07:52:15;;;;;;;;;;;8.40;99.90;;;;;;5177504;27;20404;-70
2022/04/12 07:54:40;;;;;;;;;;;8.60;99.90;;;;;;5177614;27;19938;-70
2022/04/12 07:57:06;;;;;;;;;;;8.80;99.90;;;;;;5159099;27;19933;-71
2022/04/12 07:59:31;;;;;;;;;;;8.70;99.90;;;;;;5177154;27;20013;-68
2022/04/12 08:01:57;;;;;;;;;;;8.80;99.90;;;;;;5177602;27;19981;-70
2022/04/12 08:04:22;;;;;;;;;;;8.80;99.90;;;;;;5163940;27;19931;-69
2022/04/12 08:06:48;;;;;;;;;;;8.90;99.90;;;;;;5156551;27;19930;-70
2022/04/12 08:09:14;;;;;;;;;;;9.80;99.90;;;;;;5156568;27;20375;-70
2022/04/12 08:11:39;;;;;;;;;;;9.10;99.90;;;;;;5164488;27;19934;-69
2022/04/12 08:14:05;;;;;;;;;;;9.20;99.90;;;;;;5149207;27;20014;-69
2022/04/12 08:16:30;;;;;;;;;;;9.30;99.90;;;;;;5177212;27;19933;-69
2022/04/12 08:18:56;;;;;;;;;;;9.40;99.90;;;;;;5177124;27;19930;-69
2022/04/12 08:21:51;;;;;;;;;;;9.50;99.90;;;;;;5177145;27;19930;-71
2022/04/12 08:24:17;;;;;;;;;;;9.60;99.90;;;;;;5071168;28;20441;-70
2022/04/12 08:26:42;;;;;;;;;;;9.80;99.90;;;;;;5071579;28;20015;-69
2022/04/12 08:29:08;;;;;;;;;;;9.90;99.90;;;;;;5071641;28;20070;-70
2022/04/12 08:31:33;;;;;;;;;;;10.90;99.90;;;;;;5055588;28;20295;-69
2022/04/12 08:33:59;;;;;;;;;;;10.10;99.90;;;;;;5055092;28;19955;-72
2022/04/12 08:36:25;;;;;;;;;;;10.20;99.90;;;;;;5071920;28;19925;-72
2022/04/12 08:38:51;;;;;;;;;;;10.30;99.90;;;;;;5071818;28;20411;-68
2022/04/12 08:41:18;;;;;;;;;;;10.40;99.90;;;;;;5071739;28;20023;-71
2022/04/12 08:43:44;;;;;;;;;;;10.50;99.90;;;;;;5071470;28;20014;-71
2022/04/12 08:46:10;;;;;;;;;;;10.60;99.90;;;;;;5055097;28;20384;-70
2022/04/12 08:48:36;;;;;;;;;;;10.70;99.90;;;;;;5071619;28;20338;-71
2022/04/12 08:51:01;;;;;;;;;;;10.80;99.90;;;;;;5052910;28;19924;-71
2022/04/12 08:53:28;;;;;;;;;;;10.90;99.90;;;;;;5035247;28;19972;-71
2022/04/12 08:55:54;;;;;;;;;;;11.00;99.90;;;;;;5051531;28;19925;-70
2022/04/12 08:58:20;;;;;;;;;;;11.10;99.90;;;;;;5051178;28;19929;-70
2022/04/12 09:00:46;;;;;;;;;;;11.10;99.90;;;;;;5114333;27;19923;-71
2022/04/12 09:03:14;;;;;;;;;;;11.20;99.90;;;;;;5158246;27;19923;-70
2022/04/12 09:05:40;;;;;;;;;;;11.30;99.90;;;;;;5158066;27;19927;-71
2022/04/12 09:08:24;;;;;;;;;;;11.40;99.90;;;;;;5176166;27;19927;-71
2022/04/12 09:10:55;;;;;;;;;;;11.50;99.90;;;;;;5176077;27;19923;-71
2022/04/12 09:13:20;;;;;;;;;;;11.60;99.90;;;;;;5157951;27;19926;-69
2022/04/12 09:15:46;;;;;;;;;;;11.80;99.90;;;;;;5157917;27;19929;-71
2022/04/12 09:18:12;;;;;;;;;;;11.80;99.90;;;;;;5176196;27;20301;-70
2022/04/12 09:20:38;;;;;;;;;;;11.90;99.90;;;;;;5157609;27;19923;-71
2022/04/12 09:23:13;;;;;;;;;;;12.00;99.90;;;;;;5157656;27;19975;-71
2022/04/12 09:25:51;;;;;;;;;;;12.10;99.90;;;;;;5176153;27;19923;-71
2022/04/12 09:28:17;;;;;;;;;;;12.30;99.90;;;;;;5157077;27;19923;-70
2022/04/12 09:30:42;;;;;;;;;;;12.40;99.90;;;;;;5157294;27;20296;-70
2022/04/12 09:33:08;;;;;;;;;;;12.50;99.90;;;;;;5157826;27;19967;-70
2022/04/12 09:35:33;;;;;;;;;;;12.50;99.90;;;;;;5176079;27;19930;-72
2022/04/12 09:37:59;;;;;;;;;;;12.60;99.90;;;;;;5179896;27;19947;-70
2022/04/12 09:40:25;;;;;;;;;;;12.80;99.90;;;;;;5180298;27;19923;-72
2022/04/12 09:42:51;;;;;;;;;;;12.90;99.90;;;;;;5179201;27;20360;-69
2022/04/12 09:45:24;;;;;;;;;;;13.00;99.90;;;;;;5180246;27;20290;-69
2022/04/12 09:47:54;;;;;;;;;;;13.10;99.90;;;;;;5179540;27;19922;-69
2022/04/12 09:50:22;;;;;;;;;;;13.20;99.90;;;;;;5179907;27;19926;-71
2022/04/12 09:53:10;;;;;;;;;;;13.30;99.90;;;;;;5161382;27;19930;-70
2022/04/12 09:55:37;;;;;;;;;;;13.40;99.90;;;;;;5179955;27;19923;-70
2022/04/12 09:58:07;;;;;;;;;;;13.50;99.90;;;;;;5179571;27;19926;-69
2022/04/12 10:00:33;;;;;;;;;;;13.60;99.90;;;;;;5179758;27;19923;-71
2022/04/12 10:03:01;;;;;;;;;;;13.80;99.90;;;;;;5179679;27;19988;-72
2022/04/12 10:05:28;;;;;;;;;;;13.90;99.90;;;;;;5179529;27;19969;-73
2022/04/12 10:07:55;;;;;;;;;;;14.00;99.90;;;;;;5179643;27;19929;-71
2022/04/12 10:10:23;;;;;;;;;;;14.20;99.90;;;;;;5160874;27;20293;-71
2022/04/12 10:12:49;;;;;;;;;;;14.30;99.90;;;;;;5179270;27;19922;-71
2022/04/12 10:15:15;;;;;;;;;;;14.40;99.90;;;;;;5179217;27;20022;-70
2022/04/12 10:17:41;;;;;;;;;;;14.50;99.90;;;;;;5179343;27;19934;-71
2022/04/12 10:20:07;;;;;;;;;;;14.60;99.90;;;;;;5179059;27;20385;-70
2022/04/12 10:22:33;;;;;;;;;;;14.30;99.90;;;;;;5160632;27;19976;-70
2022/04/12 10:25:00;;;;;;;;;;;14.70;99.90;;;;;;5178988;27;20054;-71
2022/04/12 10:27:27;;;;;;;;;;;14.80;99.90;;;;;;5160739;27;19929;-70
2022/04/12 10:30:12;;;;;;;;;;;14.80;99.90;;;;;;5178575;27;19930;-72
2022/04/12 10:32:37;;;;;;;;;;;14.90;98.10;;;;;;5178761;27;19929;-70
2022/04/12 10:35:03;;;;;;;;;;;15.00;98.10;;;;;;5178830;27;20005;-72
2022/04/12 10:37:29;;;;;;;;;;;15.10;97.30;;;;;;5178875;27;19981;-71
2022/04/12 10:40:07;;;;;;;;;;;15.20;94.00;;;;;;5178759;27;19922;-72
2022/04/12 10:42:33;;;;;;;;;;;15.30;90.40;;;;;;5178480;27;19950;-73
2022/04/12 10:45:01;;;;;;;;;;;15.40;99.90;;;;;;5159981;27;19952;-73
2022/04/12 10:47:31;;;;;;;;;;;15.50;96.60;;;;;;5177805;27;19927;-72
2022/04/12 10:49:58;;;;;;;;;;;15.50;99.90;;;;;;5178353;27;19927;-71
2022/04/12 10:52:42;;;;;;;;;;;15.50;96.60;;;;;;5160231;27;20266;-72
2022/04/12 10:55:26;;;;;;;;;;;15.60;97.00;;;;;;5178592;27;19977;-72
2022/04/12 10:58:11;;;;;;;;;;;15.60;99.90;;;;;;5178215;27;19981;-71
2022/04/12 11:00:37;;;;;;;;;;;15.60;99.70;;;;;;5159995;27;19922;-71
2022/04/12 11:03:02;;;;;;;;;;;15.70;99.90;;;;;;5178473;27;20389;-70
2022/04/12 11:05:38;;;;;;;;;;;15.80;99.90;;;;;;5178565;27;19945;-72
2022/04/12 11:08:13;;;;;;;;;;;15.90;99.90;;;;;;5178241;27;19927;-70
2022/04/12 11:10:39;;;;;;;;;;;15.90;93.80;;;;;;5178041;27;19926;-72
2022/04/12 11:13:06;;;;;;;;;;;16.00;97.50;;;;;;5178236;27;19922;-72
2022/04/12 11:15:33;;;;;;;;;;;16.10;98.60;;;;;;5178164;27;20017;-70
2022/04/12 11:18:09;;;;;;;;;;;16.20;99.90;;;;;;5178199;27;19923;-71
2022/04/12 11:20:36;;;;;;;;;;;16.30;99.90;;;;;;5178072;27;19930;-70
2022/04/12 11:23:19;;;;;;;;;;;16.30;98.10;;;;;;5159417;27;19923;-73
2022/04/12 11:25:46;;;;;;;;;;;16.40;99.90;;;;;;5177898;27;19923;-72
2022/04/12 11:28:21;;;;;;;;;;;16.40;99.90;;;;;;5177784;27;19974;-72
2022/04/12 11:30:57;;;;;;;;;;;16.50;99.90;;;;;;5177580;27;19927;-71
2022/04/12 11:33:23;;;;;;;;;;;16.60;96.30;;;;;;5159583;27;19922;-73
2022/04/12 11:35:50;;;;;;;;;;;16.70;93.30;;;;;;5177597;27;19923;-71
2022/04/12 11:38:17;;;;;;;;;;;16.70;90.80;;;;;;5177805;27;20296;-72
2022/04/12 11:40:44;;;;;;;;;;;16.80;96.50;;;;;;5177835;27;19930;-72
2022/04/12 11:43:22;;;;;;;;;;;16.90;99.90;;;;;;5176886;27;19922;-70
2022/04/12 11:45:50;;;;;;;;;;;16.90;99.20;;;;;;5177514;27;19929;-71
2022/04/12 11:48:16;;;;;;;;;;;17.00;99.80;;;;;;5177511;27;19929;-72
2022/04/12 11:50:48;;;;;;;;;;;17.00;87.00;;;;;;5177624;27;19922;-72
2022/04/12 11:53:14;;;;;;;;;;;17.10;94.90;;;;;;5177543;27;19923;-70
2022/04/12 11:55:40;;;;;;;;;;;17.10;90.80;;;;;;5175257;27;19926;-72
2022/04/12 11:58:09;;;;;;;;;;;17.10;91.10;;;;;;5177257;27;20022;-71
2022/04/12 12:00:35;;;;;;;;;;;17.10;99.30;;;;;;5176997;27;19923;-70
2022/04/12 12:03:00;;;;;;;;;;;17.20;92.00;;;;;;5177204;27;20300;-73
2022/04/12 12:05:26;;;;;;;;;;;17.30;99.90;;;;;;5177435;27;19923;-70
2022/04/12 12:07:56;;;;;;;;;;;17.30;96.80;;;;;;5177245;27;19922;-72
2022/04/12 12:10:22;;;;;;;;;;;17.40;96.00;;;;;;5177085;27;19984;-71
2022/04/12 12:12:48;;;;;;;;;;;17.50;99.90;;;;;;5176985;27;19995;-72
2022/04/12 12:15:24;;;;;;;;;;;17.50;88.20;;;;;;5158189;27;19923;-74
2022/04/12 12:18:10;;;;;;;;;;;17.50;78.20;;;;;;5158495;27;19967;-72
2022/04/12 12:20:36;;;;;;;;;;;17.50;79.90;;;;;;5176101;27;20001;-72
2022/04/12 12:23:03;;;;;;;;;;;17.60;85.30;;;;;;5176905;27;20010;-74
2022/04/12 12:25:51;;;;;;;;;;;17.60;91.10;;;;;;5158327;27;20365;-72
2022/04/12 12:28:17;;;;;;;;;;;17.60;81.30;;;;;;5176541;27;19922;-71
2022/04/12 12:30:44;;;;;;;;;;;17.70;80.30;;;;;;5176498;27;20381;-71
2022/04/12 12:33:10;;;;;;;;;;;17.80;92.10;;;;;;5158368;27;19923;-73
2022/04/12 12:35:41;;;;;;;;;;;17.80;80.30;;;;;;5176591;27;19927;-72
2022/04/12 12:38:17;;;;;;;;;;;17.80;90.30;;;;;;5176499;27;20472;-70
2022/04/12 12:40:44;;;;;;;;;;;17.80;91.70;;;;;;5176425;27;20409;-72
2022/04/12 12:43:11;;;;;;;;;;;17.90;81.60;;;;;;5176432;27;19923;-72
2022/04/12 12:45:46;;;;;;;;;;;17.90;84.70;;;;;;5176447;27;20301;-71
2022/04/12 12:48:15;;;;;;;;;;;18.00;86.20;;;;;;5157804;27;19922;-73
2022/04/12 12:50:42;;;;;;;;;;;18.00;80.40;;;;;;5176256;27;19931;-72
2022/04/12 12:53:09;;;;;;;;;;;17.90;79.40;;;;;;5176250;27;19966;-73
2022/04/12 12:55:36;;;;;;;;;;;18.20;79.70;;;;;;5176041;27;20412;-72
2022/04/12 12:58:06;;;;;;;;;;;18.00;78.20;;;;;;5176263;27;19927;-70
2022/04/12 13:00:31;;;;;;;;;;;18.10;84.40;;;;;;5176163;27;19923;-71
2022/04/12 13:02:58;;;;;;;;;;;18.10;81.00;;;;;;5176232;27;20388;-70
2022/04/12 13:05:24;;;;;;;;;;;18.20;90.10;;;;;;5157587;27;19971;-71
2022/04/12 13:07:53;;;;;;;;;;;18.20;87.50;;;;;;5176074;27;19948;-72
2022/04/12 13:10:19;;;;;;;;;;;18.20;73.60;;;;;;5175679;27;19975;-72
2022/04/12 13:12:45;;;;;;;;;;;18.30;82.30;;;;;;5175774;27;20293;-72
2022/04/12 13:15:11;;;;;;;;;;;18.30;85.10;;;;;;5176044;27;19927;-70
2022/04/12 13:17:37;;;;;;;;;;;18.40;75.60;;;;;;5176048;27;20408;-72
2022/04/12 13:20:03;;;;;;;;;;;18.40;85.60;;;;;;5176106;27;19923;-72
2022/04/12 13:22:29;;;;;;;;;;;17.90;78.00;;;;;;5176321;27;19930;-72
2022/04/12 13:24:54;;;;;;;;;;;18.50;75.60;;;;;;5175895;27;19922;-70
2022/04/12 13:27:21;;;;;;;;;;;18.50;77.70;;;;;;5157767;27;20357;-72
2022/04/12 13:29:46;;;;;;;;;;;18.60;78.40;;;;;;5175629;27;20030;-74
2022/04/12 13:32:12;;;;;;;;;;;18.50;77.30;;;;;;5176043;27;19923;-72
2022/04/12 13:34:37;;;;;;;;;;;18.60;77.90;;;;;;5176125;27;19922;-70
2022/04/12 13:37:04;;;;;;;;;;;18.60;74.40;;;;;;5176009;27;20007;-72
2022/04/12 13:39:30;;;;;;;;;;;18.60;73.40;;;;;;5175991;27;19969;-71
2022/04/12 13:41:55;;;;;;;;;;;18.70;76.20;;;;;;5157453;27;19966;-74
2022/04/12 13:44:21;;;;;;;;;;;18.70;78.30;;;;;;5175996;27;19927;-71
2022/04/12 13:46:46;;;;;;;;;;;18.70;76.50;;;;;;5175696;27;19923;-71
2022/04/12 13:49:12;;;;;;;;;;;18.80;78.10;;;;;;5175899;27;19922;-73
2022/04/12 13:51:38;;;;;;;;;;;18.80;87.70;;;;;;5168050;27;19923;-71
2022/04/12 13:54:03;;;;;;;;;;;18.80;80.60;;;;;;5174324;27;20013;-72
2022/04/12 13:56:29;;;;;;;;;;;18.80;81.50;;;;;;5175555;27;20422;-72
2022/04/12 13:58:54;;;;;;;;;;;18.80;74.60;;;;;;5157371;27;19930;-71
2022/04/12 14:01:20;;;;;;;;;;;18.80;82.40;;;;;;5157530;27;20025;-72
2022/04/12 14:03:47;;;;;;;;;;;18.70;78.10;;;;;;5175921;27;20369;-72
2022/04/12 14:06:13;;;;;;;;;;;18.60;82.10;;;;;;5175647;27;20296;-72
2022/04/12 14:08:39;;;;;;;;;;;18.60;80.10;;;;;;5175704;27;20028;-71
2022/04/12 14:11:06;;;;;;;;;;;18.60;76.70;;;;;;5156797;27;19923;-71
2022/04/12 14:13:33;;;;;;;;;;;18.60;79.20;;;;;;5175795;27;19922;-71
2022/04/12 14:15:58;;;;;;;;;;;18.60;85.20;;;;;;5157341;27;19977;-70
2022/04/12 14:18:24;;;;;;;;;;;18.60;81.40;;;;;;5175697;27;19923;-73
2022/04/12 14:20:51;;;;;;;;;;;18.60;88.30;;;;;;5156190;27;20017;-74
2022/04/12 14:23:16;;;;;;;;;;;18.60;91.10;;;;;;5169690;27;19923;-71